sensor_id;sensor_type;location;lat;lon;timestamp;noise_LAeq;noise_LA_min;noise_LA_max;noise_LA01;noise_LA95
57439;Laerm;43282;47.188;8.896;2022-11-25T00:01:05;45.05;40.53;59.46;;
57439;Laerm;43282;47.188;8.896;2022-11-25T00:03:31;47.48;40.13;62.79;;
57439;Laerm;43282;47.188;8.896;2022-11-25T00:05:56;47.95;41.03;61.60;;
57439;Laerm;43282;47.188;8.896;2022-11-25T00:08:21;41.54;38.05;45.66;;
57439;Laerm;43282;47.188;8.896;2022-11-25T00:10:47;48.46;41.38;62.11;;
57439;Laerm;43282;47.188;8.896;2022-11-25T00:13:12;42.82;37.88;52.26;;
57439;Laerm;43282;47.188;8.896;2022-11-25T00:15:37;41.65;37.52;45.66;;
57439;Laerm;43282;47.188;8.896;2022-11-25T00:18:03;47.02;37.53;63.93;;
57439;Laerm;43282;47.188;8.896;2022-11-25T00:20:28;45.83;38.81;59.46;;
57439;Laerm;43282;47.188;8.896;2022-11-25T00:22:53;45.28;37.88;60.17;;
57439;Laerm;43282;47.188;8.896;2022-11-25T00:25:19;40.81;36.69;43.54;;
57439;Laerm;43282;47.188;8.896;2022-11-25T00:27:44;40.85;37.12;44.51;;
57439;Laerm;43282;47.188;8.896;2022-11-25T00:30:09;40.24;36.69;45.04;;
57439;Laerm;43282;47.188;8.896;2022-11-25T00:32:35;40.62;36.45;47.74;;
57439;Laerm;43282;47.188;8.896;2022-11-25T00:35:00;41.10;37.12;51.77;;
57439;Laerm;43282;47.188;8.896;2022-11-25T00:37:25;41.60;37.52;51.99;;
57439;Laerm;43282;47.188;8.896;2022-11-25T00:39:51;42.86;38.37;54.34;;
57439;Laerm;43282;47.188;8.896;2022-11-25T00:42:16;42.19;38.52;49.62;;
57439;Laerm;43282;47.188;8.896;2022-11-25T00:45:00;40.99;36.91;46.62;;
57439;Laerm;43282;47.188;8.896;2022-11-25T00:47:25;46.86;37.12;64.19;;
57439;Laerm;43282;47.188;8.896;2022-11-25T00:49:51;41.00;37.32;45.01;;
57439;Laerm;43282;47.188;8.896;2022-11-25T00:52:18;41.87;36.91;48.48;;
57439;Laerm;43282;47.188;8.896;2022-11-25T00:54:47;40.11;35.04;52.05;;
57439;Laerm;43282;47.188;8.896;2022-11-25T00:57:14;40.96;36.69;45.86;;
57439;Laerm;43282;47.188;8.896;2022-11-25T00:59:39;41.51;38.95;45.39;;
57439;Laerm;43282;47.188;8.896;2022-11-25T01:02:05;41.87;39.08;45.45;;
57439;Laerm;43282;47.188;8.896;2022-11-25T01:04:30;41.87;39.58;44.03;;
57439;Laerm;43282;47.188;8.896;2022-11-25T01:06:56;46.16;39.78;62.17;;
57439;Laerm;43282;47.188;8.896;2022-11-25T01:09:23;41.79;38.67;43.99;;
57439;Laerm;43282;47.188;8.896;2022-11-25T01:11:49;41.18;37.12;44.19;;
57439;Laerm;43282;47.188;8.896;2022-11-25T01:14:15;41.31;37.32;50.04;;
57439;Laerm;43282;47.188;8.896;2022-11-25T01:16:40;45.75;35.94;61.68;;
57439;Laerm;43282;47.188;8.896;2022-11-25T01:19:06;43.53;37.32;58.34;;
57439;Laerm;43282;47.188;8.896;2022-11-25T01:21:31;44.49;38.21;58.01;;
57439;Laerm;43282;47.188;8.896;2022-11-25T01:23:58;46.75;38.67;62.06;;
57439;Laerm;43282;47.188;8.896;2022-11-25T01:26:24;46.95;39.34;61.13;;
57439;Laerm;43282;47.188;8.896;2022-11-25T01:28:54;42.43;38.21;55.25;;
57439;Laerm;43282;47.188;8.896;2022-11-25T01:31:20;49.93;38.05;69.84;;
57439;Laerm;43282;47.188;8.896;2022-11-25T01:33:46;45.26;38.52;61.26;;
57439;Laerm;43282;47.188;8.896;2022-11-25T01:36:12;44.29;37.88;61.78;;
57439;Laerm;43282;47.188;8.896;2022-11-25T01:38:38;45.07;38.37;55.14;;
57439;Laerm;43282;47.188;8.896;2022-11-25T01:41:04;44.33;38.05;56.77;;
57439;Laerm;43282;47.188;8.896;2022-11-25T01:43:31;44.70;38.74;57.69;;
57439;Laerm;43282;47.188;8.896;2022-11-25T01:48:46;44.94;38.95;64.26;;
57439;Laerm;43282;47.188;8.896;2022-11-25T01:51:39;46.72;33.44;62.63;;
57439;Laerm;43282;47.188;8.896;2022-11-25T01:54:02;44.08;34.69;58.95;;
57439;Laerm;43282;47.188;8.896;2022-11-25T01:56:30;39.92;33.44;55.19;;
57439;Laerm;43282;47.188;8.896;2022-11-25T01:58:57;52.39;37.70;66.14;;
57439;Laerm;43282;47.188;8.896;2022-11-25T02:01:23;47.77;37.12;61.76;;
57439;Laerm;43282;47.188;8.896;2022-11-25T02:03:49;45.29;38.81;60.76;;
57439;Laerm;43282;47.188;8.896;2022-11-25T02:08:42;47.58;40.13;59.51;;
57439;Laerm;43282;47.188;8.896;2022-11-25T02:11:08;47.64;40.43;59.02;;
57439;Laerm;43282;47.188;8.896;2022-11-25T02:13:34;45.79;37.70;56.23;;
57439;Laerm;43282;47.188;8.896;2022-11-25T02:16:00;48.79;37.12;63.90;;
57439;Laerm;43282;47.188;8.896;2022-11-25T02:18:26;47.23;36.45;59.40;;
57439;Laerm;43282;47.188;8.896;2022-11-25T02:20:51;42.26;36.20;56.03;;
57439;Laerm;43282;47.188;8.896;2022-11-25T02:25:50;50.14;35.04;64.20;;
57439;Laerm;43282;47.188;8.896;2022-11-25T02:28:16;46.52;37.12;62.23;;
57439;Laerm;43282;47.188;8.896;2022-11-25T02:30:42;44.88;37.32;57.98;;
57439;Laerm;43282;47.188;8.896;2022-11-25T02:33:07;45.00;37.70;56.53;;
57439;Laerm;43282;47.188;8.896;2022-11-25T02:35:33;46.70;40.33;57.55;;
57439;Laerm;43282;47.188;8.896;2022-11-25T02:38:09;53.02;39.81;65.60;;
57439;Laerm;43282;47.188;8.896;2022-11-25T02:40:46;49.56;38.37;67.04;;
57439;Laerm;43282;47.188;8.896;2022-11-25T02:43:13;47.39;37.12;62.14;;
57439;Laerm;43282;47.188;8.896;2022-11-25T02:48:13;42.57;36.45;55.83;;
57439;Laerm;43282;47.188;8.896;2022-11-25T02:50:39;48.24;36.69;60.60;;
57439;Laerm;43282;47.188;8.896;2022-11-25T02:53:04;47.13;39.58;61.50;;
57439;Laerm;43282;47.188;8.896;2022-11-25T02:55:29;51.24;39.46;69.04;;
57439;Laerm;43282;47.188;8.896;2022-11-25T02:57:54;47.03;38.52;59.54;;
57439;Laerm;43282;47.188;8.896;2022-11-25T03:00:20;49.70;38.81;64.36;;
57439;Laerm;43282;47.188;8.896;2022-11-25T03:02:45;47.70;37.32;61.36;;
57439;Laerm;43282;47.188;8.896;2022-11-25T03:05:11;47.52;38.81;63.63;;
57439;Laerm;43282;47.188;8.896;2022-11-25T03:07:36;47.84;39.70;59.24;;
57439;Laerm;43282;47.188;8.896;2022-11-25T03:10:02;48.59;40.98;61.92;;
57439;Laerm;43282;47.188;8.896;2022-11-25T03:12:27;49.58;40.13;63.37;;
57439;Laerm;43282;47.188;8.896;2022-11-25T03:14:53;49.22;39.21;64.12;;
57439;Laerm;43282;47.188;8.896;2022-11-25T03:17:19;46.68;39.08;57.34;;
57439;Laerm;43282;47.188;8.896;2022-11-25T03:19:44;47.31;39.46;57.19;;
57439;Laerm;43282;47.188;8.896;2022-11-25T03:22:09;49.65;40.23;62.79;;
57439;Laerm;43282;47.188;8.896;2022-11-25T03:24:36;52.76;41.38;65.36;;
57439;Laerm;43282;47.188;8.896;2022-11-25T03:27:01;47.04;37.88;60.73;;
57439;Laerm;43282;47.188;8.896;2022-11-25T03:29:26;52.39;39.81;64.47;;
57439;Laerm;43282;47.188;8.896;2022-11-25T03:31:51;50.96;40.98;65.20;;
57439;Laerm;43282;47.188;8.896;2022-11-25T03:34:17;52.87;42.03;65.38;;
57439;Laerm;43282;47.188;8.896;2022-11-25T03:36:42;47.89;38.95;62.13;;
57439;Laerm;43282;47.188;8.896;2022-11-25T03:39:07;53.52;43.49;65.63;;
57439;Laerm;43282;47.188;8.896;2022-11-25T03:41:32;51.17;43.24;63.47;;
57439;Laerm;43282;47.188;8.896;2022-11-25T03:43:58;52.30;42.03;63.43;;
57439;Laerm;43282;47.188;8.896;2022-11-25T03:46:23;46.61;39.46;57.78;;
57439;Laerm;43282;47.188;8.896;2022-11-25T03:48:48;50.60;40.33;62.96;;
57439;Laerm;43282;47.188;8.896;2022-11-25T03:51:14;54.00;41.75;64.61;;
57439;Laerm;43282;47.188;8.896;2022-11-25T03:53:39;49.47;42.59;61.35;;
57439;Laerm;43282;47.188;8.896;2022-11-25T03:56:04;48.41;41.30;60.78;;
57439;Laerm;43282;47.188;8.896;2022-11-25T03:58:30;48.85;37.32;64.26;;
57439;Laerm;43282;47.188;8.896;2022-11-25T04:00:58;50.82;42.22;61.44;;
57439;Laerm;43282;47.188;8.896;2022-11-25T04:03:23;50.10;42.06;66.48;;
57439;Laerm;43282;47.188;8.896;2022-11-25T04:05:49;50.57;42.53;65.46;;
57439;Laerm;43282;47.188;8.896;2022-11-25T04:08:14;53.71;43.04;64.54;;
57439;Laerm;43282;47.188;8.896;2022-11-25T04:10:39;52.50;43.09;62.81;;
57439;Laerm;43282;47.188;8.896;2022-11-25T04:13:04;54.80;44.43;67.94;;
57439;Laerm;43282;47.188;8.896;2022-11-25T04:15:30;49.50;42.03;59.34;;
57439;Laerm;43282;47.188;8.896;2022-11-25T04:17:55;52.92;43.63;65.00;;
57439;Laerm;43282;47.188;8.896;2022-11-25T04:20:20;53.35;43.94;63.18;;
57439;Laerm;43282;47.188;8.896;2022-11-25T04:22:46;52.83;43.44;62.67;;
57439;Laerm;43282;47.188;8.896;2022-11-25T04:25:11;55.75;45.45;67.37;;
57439;Laerm;43282;47.188;8.896;2022-11-25T04:27:36;53.98;42.88;65.88;;
57439;Laerm;43282;47.188;8.896;2022-11-25T04:30:02;53.60;44.15;65.41;;
57439;Laerm;43282;47.188;8.896;2022-11-25T04:32:27;66.21;46.13;85.82;;
57439;Laerm;43282;47.188;8.896;2022-11-25T04:34:52;57.18;46.97;66.35;;
57439;Laerm;43282;47.188;8.896;2022-11-25T04:37:18;55.90;46.73;68.39;;
57439;Laerm;43282;47.188;8.896;2022-11-25T04:39:43;59.00;50.36;68.47;;
57439;Laerm;43282;47.188;8.896;2022-11-25T04:42:08;56.60;46.59;65.89;;
57439;Laerm;43282;47.188;8.896;2022-11-25T04:44:52;57.04;45.97;65.49;;
57439;Laerm;43282;47.188;8.896;2022-11-25T04:47:17;57.73;49.30;68.97;;
57439;Laerm;43282;47.188;8.896;2022-11-25T04:49:42;57.40;47.50;68.22;;
57439;Laerm;43282;47.188;8.896;2022-11-25T04:52:08;56.83;46.76;66.08;;
57439;Laerm;43282;47.188;8.896;2022-11-25T04:54:34;57.73;48.23;66.22;;
57439;Laerm;43282;47.188;8.896;2022-11-25T04:56:59;58.14;50.01;66.57;;
57439;Laerm;43282;47.188;8.896;2022-11-25T04:59:24;58.62;49.85;70.83;;
57439;Laerm;43282;47.188;8.896;2022-11-25T05:02:18;58.38;48.95;69.87;;
57439;Laerm;43282;47.188;8.896;2022-11-25T05:04:44;58.65;48.58;72.17;;
57439;Laerm;43282;47.188;8.896;2022-11-25T05:07:10;57.81;50.38;69.70;;
57439;Laerm;43282;47.188;8.896;2022-11-25T05:09:37;57.83;50.06;69.91;;
57439;Laerm;43282;47.188;8.896;2022-11-25T05:12:02;58.99;50.93;67.96;;
57439;Laerm;43282;47.188;8.896;2022-11-25T05:14:28;60.64;53.66;67.56;;
57439;Laerm;43282;47.188;8.896;2022-11-25T05:16:53;59.40;52.88;67.16;;
57439;Laerm;43282;47.188;8.896;2022-11-25T05:19:18;58.77;52.24;67.48;;
57439;Laerm;43282;47.188;8.896;2022-11-25T05:21:44;61.64;53.74;74.71;;
57439;Laerm;43282;47.188;8.896;2022-11-25T05:24:09;61.22;53.12;68.38;;
57439;Laerm;43282;47.188;8.896;2022-11-25T05:26:34;62.12;53.60;75.28;;
57439;Laerm;43282;47.188;8.896;2022-11-25T05:29:00;61.40;54.59;69.27;;
57439;Laerm;43282;47.188;8.896;2022-11-25T05:31:25;60.58;52.83;68.04;;
57439;Laerm;43282;47.188;8.896;2022-11-25T05:33:50;61.39;54.77;76.69;;
57439;Laerm;43282;47.188;8.896;2022-11-25T05:36:15;62.86;52.08;76.65;;
57439;Laerm;43282;47.188;8.896;2022-11-25T05:38:41;62.30;55.98;69.38;;
57439;Laerm;43282;47.188;8.896;2022-11-25T05:41:06;61.65;53.74;68.39;;
57439;Laerm;43282;47.188;8.896;2022-11-25T05:43:32;62.52;55.11;71.80;;
57439;Laerm;43282;47.188;8.896;2022-11-25T05:45:58;62.02;55.42;68.45;;
57439;Laerm;43282;47.188;8.896;2022-11-25T05:48:23;62.50;56.12;72.45;;
57439;Laerm;43282;47.188;8.896;2022-11-25T05:50:48;62.28;54.04;74.45;;
57439;Laerm;43282;47.188;8.896;2022-11-25T05:53:14;61.48;54.69;71.39;;
57439;Laerm;43282;47.188;8.896;2022-11-25T05:55:41;61.07;53.28;69.23;;
57439;Laerm;43282;47.188;8.896;2022-11-25T05:58:06;64.08;54.34;83.50;;
57439;Laerm;43282;47.188;8.896;2022-11-25T06:00:32;61.89;53.94;77.07;;
57439;Laerm;43282;47.188;8.896;2022-11-25T06:02:57;59.80;51.77;69.25;;
57439;Laerm;43282;47.188;8.896;2022-11-25T06:05:22;62.19;54.54;72.03;;
57439;Laerm;43282;47.188;8.896;2022-11-25T06:07:48;60.59;51.93;69.03;;
57439;Laerm;43282;47.188;8.896;2022-11-25T06:10:14;61.59;53.05;69.66;;
57439;Laerm;43282;47.188;8.896;2022-11-25T06:12:39;62.30;54.99;76.29;;
57439;Laerm;43282;47.188;8.896;2022-11-25T06:15:05;62.06;55.68;71.07;;
57439;Laerm;43282;47.188;8.896;2022-11-25T06:17:30;61.88;53.75;70.89;;
57439;Laerm;43282;47.188;8.896;2022-11-25T06:19:55;62.44;54.93;70.92;;
57439;Laerm;43282;47.188;8.896;2022-11-25T06:22:21;61.34;55.28;69.01;;
57439;Laerm;43282;47.188;8.896;2022-11-25T06:24:46;61.38;56.03;66.87;;
57439;Laerm;43282;47.188;8.896;2022-11-25T06:27:11;65.84;55.56;79.55;;
57439;Laerm;43282;47.188;8.896;2022-11-25T06:29:36;62.31;55.28;73.16;;
57439;Laerm;43282;47.188;8.896;2022-11-25T06:32:02;61.37;55.40;69.28;;
57439;Laerm;43282;47.188;8.896;2022-11-25T06:34:27;61.62;55.53;76.20;;
57439;Laerm;43282;47.188;8.896;2022-11-25T06:36:52;61.77;54.24;68.20;;
57439;Laerm;43282;47.188;8.896;2022-11-25T06:39:18;72.44;54.11;102.58;;
57439;Laerm;43282;47.188;8.896;2022-11-25T06:41:43;63.43;54.13;75.09;;
57439;Laerm;43282;47.188;8.896;2022-11-25T06:44:09;63.04;54.80;71.11;;
57439;Laerm;43282;47.188;8.896;2022-11-25T06:46:34;63.41;55.85;77.77;;
57439;Laerm;43282;47.188;8.896;2022-11-25T06:49:00;61.31;52.88;69.66;;
57439;Laerm;43282;47.188;8.896;2022-11-25T06:51:25;62.14;53.81;74.22;;
57439;Laerm;43282;47.188;8.896;2022-11-25T06:53:50;75.39;54.63;92.50;;
57439;Laerm;43282;47.188;8.896;2022-11-25T06:56:17;71.12;51.57;89.34;;
57439;Laerm;43282;47.188;8.896;2022-11-25T06:58:43;60.13;49.15;77.89;;
57439;Laerm;43282;47.188;8.896;2022-11-25T07:01:13;59.71;52.55;70.31;;
57439;Laerm;43282;47.188;8.896;2022-11-25T07:03:39;60.16;51.08;68.31;;
57439;Laerm;43282;47.188;8.896;2022-11-25T07:06:05;61.08;52.11;68.67;;
57439;Laerm;43282;47.188;8.896;2022-11-25T07:08:30;59.95;52.35;70.07;;
57439;Laerm;43282;47.188;8.896;2022-11-25T07:11:01;64.01;51.99;77.58;;
57439;Laerm;43282;47.188;8.896;2022-11-25T07:13:26;60.48;54.18;70.91;;
57439;Laerm;43282;47.188;8.896;2022-11-25T07:15:51;60.24;52.94;69.76;;
57439;Laerm;43282;47.188;8.896;2022-11-25T07:18:17;61.22;53.07;72.11;;
57439;Laerm;43282;47.188;8.896;2022-11-25T07:20:42;59.77;52.30;69.27;;
57439;Laerm;43282;47.188;8.896;2022-11-25T07:23:07;61.66;55.03;74.62;;
57439;Laerm;43282;47.188;8.896;2022-11-25T07:25:32;61.57;51.95;75.54;;
57439;Laerm;43282;47.188;8.896;2022-11-25T07:27:58;61.18;53.82;74.29;;
57439;Laerm;43282;47.188;8.896;2022-11-25T07:30:24;59.84;52.73;68.83;;
57439;Laerm;43282;47.188;8.896;2022-11-25T07:32:49;61.69;53.57;71.29;;
57439;Laerm;43282;47.188;8.896;2022-11-25T07:35:14;62.05;53.93;76.95;;
57439;Laerm;43282;47.188;8.896;2022-11-25T07:37:40;60.55;52.68;67.97;;
57439;Laerm;43282;47.188;8.896;2022-11-25T07:40:05;62.05;53.47;73.58;;
57439;Laerm;43282;47.188;8.896;2022-11-25T07:42:30;59.96;53.02;67.74;;
57439;Laerm;43282;47.188;8.896;2022-11-25T07:44:57;61.99;53.05;76.66;;
57439;Laerm;43282;47.188;8.896;2022-11-25T07:47:22;60.12;52.19;75.82;;
57439;Laerm;43282;47.188;8.896;2022-11-25T07:49:49;60.02;52.87;83.08;;
57439;Laerm;43282;47.188;8.896;2022-11-25T07:52:15;61.65;53.69;77.36;;
57439;Laerm;43282;47.188;8.896;2022-11-25T07:54:40;60.15;52.00;71.02;;
57439;Laerm;43282;47.188;8.896;2022-11-25T07:57:05;60.60;51.89;75.85;;
57439;Laerm;43282;47.188;8.896;2022-11-25T07:59:31;61.57;53.64;86.15;;
57439;Laerm;43282;47.188;8.896;2022-11-25T08:01:56;60.84;52.67;73.37;;
57439;Laerm;43282;47.188;8.896;2022-11-25T08:04:22;65.18;51.36;78.35;;
57439;Laerm;43282;47.188;8.896;2022-11-25T08:06:48;61.91;48.52;77.32;;
57439;Laerm;43282;47.188;8.896;2022-11-25T08:09:15;60.22;51.21;77.34;;
57439;Laerm;43282;47.188;8.896;2022-11-25T08:11:43;61.60;53.65;75.96;;
57439;Laerm;43282;47.188;8.896;2022-11-25T08:14:08;59.63;52.75;72.83;;
57439;Laerm;43282;47.188;8.896;2022-11-25T08:16:34;60.19;52.67;66.53;;
57439;Laerm;43282;47.188;8.896;2022-11-25T08:19:01;60.91;52.20;76.68;;
57439;Laerm;43282;47.188;8.896;2022-11-25T08:21:26;59.22;51.59;68.73;;
57439;Laerm;43282;47.188;8.896;2022-11-25T08:23:52;61.67;50.46;74.90;;
57439;Laerm;43282;47.188;8.896;2022-11-25T08:26:19;62.89;54.73;76.34;;
57439;Laerm;43282;47.188;8.896;2022-11-25T08:28:45;61.18;53.13;71.97;;
57439;Laerm;43282;47.188;8.896;2022-11-25T08:31:24;63.67;53.05;77.35;;
57439;Laerm;43282;47.188;8.896;2022-11-25T08:33:50;61.32;52.68;73.30;;
57439;Laerm;43282;47.188;8.896;2022-11-25T08:36:16;59.85;51.33;69.03;;
57439;Laerm;43282;47.188;8.896;2022-11-25T08:38:41;60.38;52.78;68.12;;
57439;Laerm;43282;47.188;8.896;2022-11-25T08:41:11;59.80;51.71;69.83;;
57439;Laerm;43282;47.188;8.896;2022-11-25T08:43:37;59.28;51.73;67.29;;
57439;Laerm;43282;47.188;8.896;2022-11-25T08:46:05;62.99;54.09;72.93;;
57439;Laerm;43282;47.188;8.896;2022-11-25T08:48:31;70.38;53.68;83.48;;
57439;Laerm;43282;47.188;8.896;2022-11-25T08:50:56;59.64;51.16;75.06;;
57439;Laerm;43282;47.188;8.896;2022-11-25T08:53:22;60.33;51.62;75.33;;
57439;Laerm;43282;47.188;8.896;2022-11-25T08:55:47;61.30;53.65;70.12;;
57439;Laerm;43282;47.188;8.896;2022-11-25T08:58:13;62.53;50.88;74.27;;
57439;Laerm;43282;47.188;8.896;2022-11-25T09:00:39;63.71;51.98;78.15;;
57439;Laerm;43282;47.188;8.896;2022-11-25T09:03:05;59.36;51.73;71.90;;
57439;Laerm;43282;47.188;8.896;2022-11-25T09:05:30;61.23;51.89;72.13;;
57439;Laerm;43282;47.188;8.896;2022-11-25T09:08:03;61.66;52.48;73.40;;
57439;Laerm;43282;47.188;8.896;2022-11-25T09:10:28;64.35;52.50;80.54;;
57439;Laerm;43282;47.188;8.896;2022-11-25T09:12:54;63.07;53.35;78.38;;
57439;Laerm;43282;47.188;8.896;2022-11-25T09:15:19;60.59;53.06;71.22;;
57439;Laerm;43282;47.188;8.896;2022-11-25T09:17:45;59.90;53.21;69.16;;
57439;Laerm;43282;47.188;8.896;2022-11-25T09:20:10;63.24;53.25;79.03;;
57439;Laerm;43282;47.188;8.896;2022-11-25T09:22:35;61.71;51.09;71.95;;
57439;Laerm;43282;47.188;8.896;2022-11-25T09:25:01;67.05;53.93;79.27;;
57439;Laerm;43282;47.188;8.896;2022-11-25T09:27:26;70.97;58.95;78.51;;
57439;Laerm;43282;47.188;8.896;2022-11-25T09:29:51;69.99;58.44;79.24;;
57439;Laerm;43282;47.188;8.896;2022-11-25T09:32:17;60.02;53.46;73.62;;
57439;Laerm;43282;47.188;8.896;2022-11-25T09:34:42;61.03;53.53;71.88;;
57439;Laerm;43282;47.188;8.896;2022-11-25T09:37:07;62.15;55.51;76.25;;
57439;Laerm;43282;47.188;8.896;2022-11-25T09:39:32;60.34;51.97;72.81;;
57439;Laerm;43282;47.188;8.896;2022-11-25T09:47:54;60.10;52.72;69.92;;
57439;Laerm;43282;47.188;8.896;2022-11-25T09:55:20;62.59;52.25;77.03;;
57439;Laerm;43282;47.188;8.896;2022-11-25T10:00:36;59.29;51.90;69.24;;
57439;Laerm;43282;47.188;8.896;2022-11-25T10:03:04;60.97;50.48;71.23;;
57439;Laerm;43282;47.188;8.896;2022-11-25T10:05:35;60.72;52.61;71.78;;
57439;Laerm;43282;47.188;8.896;2022-11-25T10:08:09;61.41;51.58;75.06;;
57439;Laerm;43282;47.188;8.896;2022-11-25T10:10:43;60.41;50.97;73.48;;
57439;Laerm;43282;47.188;8.896;2022-11-25T10:13:19;62.13;48.85;79.16;;
57439;Laerm;43282;47.188;8.896;2022-11-25T10:15:48;62.51;49.14;76.60;;
57439;Laerm;43282;47.188;8.896;2022-11-25T10:18:23;56.55;47.21;77.09;;
57439;Laerm;43282;47.188;8.896;2022-11-25T10:20:50;71.18;47.16;92.03;;
57439;Laerm;43282;47.188;8.896;2022-11-25T10:23:21;59.54;51.54;69.88;;
57439;Laerm;43282;47.188;8.896;2022-11-25T10:25:47;62.44;56.83;74.18;;
57439;Laerm;43282;47.188;8.896;2022-11-25T10:28:18;60.55;48.61;69.84;;
57439;Laerm;43282;47.188;8.896;2022-11-25T10:34:09;59.88;47.18;78.64;;
57439;Laerm;43282;47.188;8.896;2022-11-25T10:36:14;61.57;48.00;77.41;;
57439;Laerm;43282;47.188;8.896;2022-11-25T10:38:41;59.84;47.17;74.20;;
57439;Laerm;43282;47.188;8.896;2022-11-25T10:41:12;56.81;46.38;69.40;;
57439;Laerm;43282;47.188;8.896;2022-11-25T10:43:39;57.29;45.14;71.81;;
57439;Laerm;43282;47.188;8.896;2022-11-25T10:46:13;58.72;45.23;70.80;;
57439;Laerm;43282;47.188;8.896;2022-11-25T10:48:53;56.05;43.09;66.82;;
57439;Laerm;43282;47.188;8.896;2022-11-25T10:51:31;55.51;44.01;66.02;;
57439;Laerm;43282;47.188;8.896;2022-11-25T10:54:07;59.23;44.65;73.04;;
57439;Laerm;43282;47.188;8.896;2022-11-25T10:56:55;58.98;45.11;76.56;;
57439;Laerm;43282;47.188;8.896;2022-11-25T11:01:52;59.22;46.50;69.96;;
57439;Laerm;43282;47.188;8.896;2022-11-25T11:04:17;58.24;45.04;67.58;;
57439;Laerm;43282;47.188;8.896;2022-11-25T11:06:44;58.65;45.42;70.39;;
57439;Laerm;43282;47.188;8.896;2022-11-25T11:09:28;57.97;45.54;69.08;;
57439;Laerm;43282;47.188;8.896;2022-11-25T11:11:54;61.10;45.89;76.13;;
57439;Laerm;43282;47.188;8.896;2022-11-25T11:14:20;58.68;45.17;72.56;;
57439;Laerm;43282;47.188;8.896;2022-11-25T11:16:52;55.09;44.07;65.93;;
57439;Laerm;43282;47.188;8.896;2022-11-25T11:19:22;58.37;43.60;71.52;;
57439;Laerm;43282;47.188;8.896;2022-11-25T11:21:48;55.82;43.93;67.95;;
57439;Laerm;43282;47.188;8.896;2022-11-25T11:24:24;54.71;43.90;68.78;;
57439;Laerm;43282;47.188;8.896;2022-11-25T11:27:00;60.42;44.27;77.07;;
57439;Laerm;43282;47.188;8.896;2022-11-25T11:29:25;52.25;43.49;63.62;;
57439;Laerm;43282;47.188;8.896;2022-11-25T11:31:52;55.28;43.72;66.12;;
57439;Laerm;43282;47.188;8.896;2022-11-25T11:41:57;56.08;43.39;65.38;;
57439;Laerm;43282;47.188;8.896;2022-11-25T11:44:34;58.63;43.86;74.96;;
57439;Laerm;43282;47.188;8.896;2022-11-25T11:49:46;59.24;45.51;73.60;;
57439;Laerm;43282;47.188;8.896;2022-11-25T11:52:19;60.18;46.58;75.35;;
57439;Laerm;43282;47.188;8.896;2022-11-25T11:54:56;58.64;45.01;67.99;;
57439;Laerm;43282;47.188;8.896;2022-11-25T11:59:55;62.56;42.47;80.77;;
57439;Laerm;43282;47.188;8.896;2022-11-25T12:07:36;57.46;44.03;74.28;;
57439;Laerm;43282;47.188;8.896;2022-11-25T12:10:07;57.73;43.34;68.65;;
57439;Laerm;43282;47.188;8.896;2022-11-25T12:12:35;59.95;46.18;74.37;;
57439;Laerm;43282;47.188;8.896;2022-11-25T12:15:15;60.17;44.54;75.22;;
57439;Laerm;43282;47.188;8.896;2022-11-25T12:17:53;59.35;43.90;74.89;;
57439;Laerm;43282;47.188;8.896;2022-11-25T12:20:32;60.80;44.97;73.31;;
57439;Laerm;43282;47.188;8.896;2022-11-25T12:23:05;58.07;44.54;66.91;;
57439;Laerm;43282;47.188;8.896;2022-11-25T12:25:34;60.38;44.15;73.07;;
57439;Laerm;43282;47.188;8.896;2022-11-25T12:28:02;59.19;43.99;75.10;;
57439;Laerm;43282;47.188;8.896;2022-11-25T12:30:33;60.61;43.58;75.15;;
57439;Laerm;43282;47.188;8.896;2022-11-25T12:38:22;58.06;44.15;73.89;;
57439;Laerm;43282;47.188;8.896;2022-11-25T12:41:00;61.77;43.68;87.25;;
57439;Laerm;43282;47.188;8.896;2022-11-25T12:46:12;59.79;42.93;73.11;;
57439;Laerm;43282;47.188;8.896;2022-11-25T12:48:40;61.60;45.51;77.48;;
57439;Laerm;43282;47.188;8.896;2022-11-25T12:56:09;59.72;44.83;74.32;;
57439;Laerm;43282;47.188;8.896;2022-11-25T13:01:11;60.65;44.52;76.77;;
57439;Laerm;43282;47.188;8.896;2022-11-25T13:04:02;60.00;44.58;77.24;;
57439;Laerm;43282;47.188;8.896;2022-11-25T13:06:40;59.72;46.35;68.56;;
57439;Laerm;43282;47.188;8.896;2022-11-25T13:11:54;56.72;45.11;68.18;;
57439;Laerm;43282;47.188;8.896;2022-11-25T13:17:06;55.63;44.80;64.78;;
57439;Laerm;43282;47.188;8.896;2022-11-25T13:19:33;56.37;45.07;64.92;;
57439;Laerm;43282;47.188;8.896;2022-11-25T13:22:01;58.65;45.27;75.21;;
57439;Laerm;43282;47.188;8.896;2022-11-25T13:24:32;62.58;45.11;81.73;;
57439;Laerm;43282;47.188;8.896;2022-11-25T13:26:58;57.57;44.69;71.20;;
57439;Laerm;43282;47.188;8.896;2022-11-25T13:34:31;59.80;44.73;82.74;;
57439;Laerm;43282;47.188;8.896;2022-11-25T13:37:00;59.71;48.36;76.11;;
57439;Laerm;43282;47.188;8.896;2022-11-25T13:39:33;56.24;45.63;64.84;;
57439;Laerm;43282;47.188;8.896;2022-11-25T13:42:00;59.15;46.33;73.98;;
57439;Laerm;43282;47.188;8.896;2022-11-25T13:44:28;59.88;48.08;73.69;;
57439;Laerm;43282;47.188;8.896;2022-11-25T13:46:56;59.45;47.58;74.19;;
57439;Laerm;43282;47.188;8.896;2022-11-25T13:49:27;59.83;48.13;69.67;;
57439;Laerm;43282;47.188;8.896;2022-11-25T13:52:28;58.64;50.37;68.15;;
57439;Laerm;43282;47.188;8.896;2022-11-25T13:54:48;57.99;49.19;66.52;;
57439;Laerm;43282;47.188;8.896;2022-11-25T13:57:18;59.90;48.61;73.68;;
57439;Laerm;43282;47.188;8.896;2022-11-25T13:59:52;62.07;46.89;77.86;;
57439;Laerm;43282;47.188;8.896;2022-11-25T14:10:06;60.49;47.54;74.71;;
57439;Laerm;43282;47.188;8.896;2022-11-25T14:20:20;62.74;51.02;71.72;;
57439;Laerm;43282;47.188;8.896;2022-11-25T14:23:15;62.13;50.89;74.24;;
57439;Laerm;43282;47.188;8.896;2022-11-25T14:25:49;62.93;49.10;71.89;;
57439;Laerm;43282;47.188;8.896;2022-11-25T14:30:57;60.44;48.13;70.04;;
57439;Laerm;43282;47.188;8.896;2022-11-25T14:36:28;63.90;53.25;72.43;;
57439;Laerm;43282;47.188;8.896;2022-11-25T14:38:58;64.05;50.20;79.07;;
57439;Laerm;43282;47.188;8.896;2022-11-25T14:41:30;63.36;51.30;73.95;;
57439;Laerm;43282;47.188;8.896;2022-11-25T14:44:11;61.85;50.91;72.00;;
57439;Laerm;43282;47.188;8.896;2022-11-25T14:46:56;62.71;52.84;72.55;;
57439;Laerm;43282;47.188;8.896;2022-11-25T14:49:22;63.79;51.89;73.90;;
57439;Laerm;43282;47.188;8.896;2022-11-25T14:51:48;62.49;50.72;71.82;;
57439;Laerm;43282;47.188;8.896;2022-11-25T14:54:15;62.57;52.45;71.68;;
57439;Laerm;43282;47.188;8.896;2022-11-25T14:56:40;62.33;50.30;74.42;;
57439;Laerm;43282;47.188;8.896;2022-11-25T14:59:18;63.62;48.66;79.08;;
57439;Laerm;43282;47.188;8.896;2022-11-25T15:01:52;62.49;50.48;71.27;;
57439;Laerm;43282;47.188;8.896;2022-11-25T15:04:19;62.19;50.41;71.82;;
57439;Laerm;43282;47.188;8.896;2022-11-25T15:06:51;62.83;49.89;74.76;;
57439;Laerm;43282;47.188;8.896;2022-11-25T15:11:52;62.28;48.00;71.58;;
57439;Laerm;43282;47.188;8.896;2022-11-25T15:14:24;63.49;50.13;72.61;;
57439;Laerm;43282;47.188;8.896;2022-11-25T15:16:51;61.85;47.68;71.40;;
57439;Laerm;43282;47.188;8.896;2022-11-25T15:19:17;64.33;47.86;73.53;;
57439;Laerm;43282;47.188;8.896;2022-11-25T15:21:44;63.51;50.48;74.14;;
57439;Laerm;43282;47.188;8.896;2022-11-25T15:24:21;66.32;48.57;80.81;;